Kezdőlap
METAR-TAF:

METAR-TAF

Repülőterek :

Morrisville-Stowe State Airport

Morrisville, Vermont, Amerikai Egyesült Államok

földrajzi szélesség: 44-32-10N, földrajzi hosszúság: 072-36-58W, magasság: 223 m

Jelenlegi meteorológiai megfigyelések

A jelentés 57 perccel ezelõtt készült, 16:54 UTC
Szélcsend
Hőmérséklet 5°C
Páratartalom 45%
Légköri nyomás 1017 hPa
Látótávolság: 16.1 km
Derült ég

METAR: KMVL 231654Z AUTO 00000KT 10SM CLR 05/M06 A3003 RMK AO2 SLP181 T00501056

Idő: 12:51 (17:51 UTC)


TAF: hiányzik

Meteorológiai megfigyelések és előrejelzések több, mint 4000 repülőtéren (METAR és TAF jelentéseket).

A térképen piros és sárga pontok jelzik az elérhető meteorológiai állomásokat.

Mozgassa az egeret a pont fölött, hogy megjelenjen az állomás neve.

Azután kattintson az időjárási megfigyelések és előrejelzések megtekintéséhez.

A térkép megváltoztatása: kattintson a fekete keresztel jelölt zöld gombra ráközelítéshez, a vonallal jelölt zöld gombra távolításhoz, vagy a zöld nyilakra a szomszédos térképek eléréséhez.


METAR-TAF: